Nearby METAR Reports

 

KSJC - San Jose, California, USA
Distance from station: NE 14km
Updated: 19/10/2021 02:53
Few Clouds
Few Clouds
 Wind from NW
Wind: NW 19 km/h
Temperature: 16°C
Dew Point: 7°C
Humidity: 55%
Barometer: 1016.3 hPa
Clouds: Few Clouds
Visibility: 16 km
Cloud details: Few Clouds 732 m
Few Clouds 914 m
2021/10/19 00:53 KSJC 190053Z 32010KT 10SM FEW024 FEW030 16/07 A3001 RMK AO2 SLP162 T01560072
KNUQ - Moffett Nas/Mtn, California, USA
Distance from station: N 14km
Updated: 19/10/2021 03:15
Clear
Clear
 Wind from N
Wind: N 15 km/h
Temperature: 15°C
Dew Point: 8°C
Humidity: 63%
Barometer: 1016.3 hPa
Clouds: Clear
Visibility: 16 km
2021/10/19 01:15 KNUQ 190115Z AUTO 35008KT 10SM CLR 15/08 A3001 RMK AO2
 
KPAO - Palo Alto, California, USA
Distance from station: NNW 23km
Updated: 19/10/2021 02:47
Few Clouds
Few Clouds
 Wind from NW
Wind: NW 11 km/h
Temperature: 15°C
Dew Point: 7°C
Humidity: 59%
Barometer: 1016.6 hPa
Clouds: Few Clouds
Visibility: 16 km
Cloud details: Few Clouds 1219 m
2021/10/19 00:47 KPAO 190047Z 31006KT 10SM FEW040 15/07 A3002
KRHV - San Jose/Reid, California, USA
Distance from station: ENE 19km
Updated: 19/10/2021 02:47
Few Clouds
Few Clouds
 Wind from NW
Wind: NW 15 km/h
Temperature: 16°C
Dew Point: 6°C
Humidity: 52%
Barometer: 1016.3 hPa
Clouds: Few Clouds
Visibility: 16 km
Cloud details: Few Clouds 1524 m
2021/10/19 00:47 KRHV 190047Z 32008KT 10SM FEW050 16/06 A3001
 
KOAK - Oakland, California, USA
Distance from station: NNW 50km
Updated: 19/10/2021 02:53
Few Clouds
Few Clouds
 Wind from W
Wind: W 15 km/h
Temperature: 15°C
Dew Point: 8°C
Humidity: 63%
Barometer: 1016.9 hPa
Clouds: Few Clouds
Visibility: 16 km
Cloud details: Few Clouds 610 m
Few Clouds 1524 m
2021/10/19 00:53 KOAK 190053Z 27008KT 10SM FEW020 FEW050 15/08 A3003 RMK AO2 SLP168 T01500083
KSQL - San Carlos Airpo, California, USA
Distance from station: NW 34km
Updated: 19/10/2021 02:49
Partly cloudy
Partly cloudy
 Wind from SW
Wind: SW 17 km/h
Temperature: 14°C
Dew Point: 8°C
Humidity: 67%
Barometer: 1016.9 hPa
Clouds: Partly cloudy
Visibility: 16 km
Cloud details: Partly cloudy 1128 m
2021/10/19 00:49 KSQL 190049Z 23009KT 10SM SCT037 14/08 A3003
 
KSFO - San Francisco, California, USA
Distance from station: NW 49km
Updated: 19/10/2021 02:56
Few Clouds
Few Clouds
 Wind from W
Wind: W 24 km/h
Temperature: 14°C
Dew Point: 8°C
Humidity: 67%
Barometer: 1016.6 hPa
Clouds: Few Clouds
Visibility: 16 km
Cloud details: Few Clouds 823 m
2021/10/19 00:56 KSFO 190056Z 28013KT 10SM FEW027 14/08 A3002 RMK AO2 SLP165 T01390078
KE16 - San Martin, California, USA
Distance from station: ESE 43km
Updated: 19/10/2021 03:15
Clear
Clear
 Wind from SSW
Wind: SSW 9 km/h
Temperature: 15°C
Dew Point: 6°C
Humidity: 55%
Barometer: 1016.6 hPa
Clouds: Clear
Visibility: 16 km
2021/10/19 01:15 KE16 190115Z AUTO 20005KT 10SM CLR 15/06 A3002 RMK AO2 PWINO PNO
 
KWVI - Watsonville, California, USA
Distance from station: SSE 44km
Updated: 19/10/2021 02:53
Few Clouds
Few Clouds
 Wind from SW
Wind: SW 6 km/h
Temperature: 14°C
Dew Point: 9°C
Humidity: 72%
Barometer: 1016.6 hPa
Clouds: Few Clouds
Visibility: 16 km
Cloud details: Few Clouds 1829 m
2021/10/19 00:53 KWVI 190053Z AUTO 23003KT 10SM FEW060 14/09 A3002 RMK AO2 SLP165 T01440089
KHAF - Half Moon Bay, California, USA
Distance from station: WNW 50km
Updated: 19/10/2021 03:15
Partly cloudy
Partly cloudy
 Wind from NW
Wind: NW 9 km/h
Temperature: 12°C
Dew Point: 9°C
Humidity: 82%
Barometer: 1016.9 hPa
Clouds: Partly cloudy
Visibility: 14 km
Cloud details: Partly cloudy 488 m
2021/10/19 01:15 KHAF 190115Z AUTO 31005KT 9SM SCT016 12/09 A3003 RMK AO2
 
KHWD - Hayward, California, USA
Distance from station: N 44km
Updated: 19/10/2021 02:54
Few Clouds
Few Clouds
 Wind from WNW
Wind: WNW 15 km/h
Temperature: 14°C
Dew Point: 8°C
Humidity: 67%
Barometer: 1016.6 hPa
Clouds: Few Clouds
Visibility: 16 km
Cloud details: Few Clouds 1067 m
2021/10/19 00:54 KHWD 190054Z 29008KT 10SM FEW035 14/08 A3002 RMK AO2 SLP174 T01440083
KLVK - Livermore, California, USA
Distance from station: NNE 51km
Updated: 19/10/2021 02:53
Partly cloudy
Partly cloudy
 Wind from W
Wind: W 19 km/h
Temperature: 16°C
Dew Point: 7°C
Humidity: 55%
Barometer: 1015.9 hPa
Clouds: Partly cloudy
Visibility: 16 km
Cloud details: Partly cloudy 1189 m
2021/10/19 00:53 KLVK 190053Z 27010KT 10SM SCT039 16/07 A3000 RMK AO2 SLP158 T01560072